sensor_id;sensor_type;location;lat;lon;timestamp;temperature;humidity
19483;DHT22;9882;51.166;6.992;2023-06-22T00:01:35;26.40;99.90
19483;DHT22;9882;51.166;6.992;2023-06-22T00:04:03;26.50;99.90
19483;DHT22;9882;51.166;6.992;2023-06-22T00:06:32;26.40;99.90
19483;DHT22;9882;51.166;6.992;2023-06-22T00:09:02;26.30;99.90
19483;DHT22;9882;51.166;6.992;2023-06-22T00:11:30;26.50;99.90
19483;DHT22;9882;51.166;6.992;2023-06-22T00:14:00;26.40;99.90
19483;DHT22;9882;51.166;6.992;2023-06-22T00:16:29;26.00;99.90
19483;DHT22;9882;51.166;6.992;2023-06-22T00:18:57;26.10;99.90
19483;DHT22;9882;51.166;6.992;2023-06-22T00:21:27;26.20;99.90
19483;DHT22;9882;51.166;6.992;2023-06-22T00:23:56;26.00;99.90
19483;DHT22;9882;51.166;6.992;2023-06-22T00:26:26;26.10;99.90
19483;DHT22;9882;51.166;6.992;2023-06-22T00:28:54;26.20;99.90
19483;DHT22;9882;51.166;6.992;2023-06-22T00:31:23;26.20;99.90
19483;DHT22;9882;51.166;6.992;2023-06-22T00:33:54;26.10;99.90
19483;DHT22;9882;51.166;6.992;2023-06-22T00:36:22;26.10;99.90
19483;DHT22;9882;51.166;6.992;2023-06-22T00:38:52;26.10;99.90
19483;DHT22;9882;51.166;6.992;2023-06-22T00:41:20;26.00;99.90
19483;DHT22;9882;51.166;6.992;2023-06-22T00:43:50;26.00;99.90
19483;DHT22;9882;51.166;6.992;2023-06-22T00:46:18;26.10;99.90
19483;DHT22;9882;51.166;6.992;2023-06-22T00:48:47;26.10;99.90
19483;DHT22;9882;51.166;6.992;2023-06-22T00:51:16;26.00;99.90
19483;DHT22;9882;51.166;6.992;2023-06-22T00:53:45;25.90;99.90
19483;DHT22;9882;51.166;6.992;2023-06-22T00:56:15;26.00;99.90
19483;DHT22;9882;51.166;6.992;2023-06-22T00:58:46;25.90;99.90
19483;DHT22;9882;51.166;6.992;2023-06-22T01:01:18;26.00;99.90
19483;DHT22;9882;51.166;6.992;2023-06-22T01:03:51;25.70;99.90
19483;DHT22;9882;51.166;6.992;2023-06-22T01:06:24;25.70;99.90
19483;DHT22;9882;51.166;6.992;2023-06-22T01:09:02;25.90;99.90
19483;DHT22;9882;51.166;6.992;2023-06-22T01:11:37;26.00;99.90
19483;DHT22;9882;51.166;6.992;2023-06-22T01:14:14;26.00;99.90
19483;DHT22;9882;51.166;6.992;2023-06-22T01:16:45;25.90;99.90
19483;DHT22;9882;51.166;6.992;2023-06-22T01:19:35;26.00;99.90
19483;DHT22;9882;51.166;6.992;2023-06-22T01:22:06;26.10;99.90
19483;DHT22;9882;51.166;6.992;2023-06-22T01:24:45;25.90;99.90
19483;DHT22;9882;51.166;6.992;2023-06-22T01:27:31;25.80;99.90
19483;DHT22;9882;51.166;6.992;2023-06-22T01:30:05;25.80;99.90
19483;DHT22;9882;51.166;6.992;2023-06-22T01:32:36;25.60;99.90
19483;DHT22;9882;51.166;6.992;2023-06-22T01:35:07;25.50;99.90
19483;DHT22;9882;51.166;6.992;2023-06-22T01:37:37;25.60;99.90
19483;DHT22;9882;51.166;6.992;2023-06-22T01:40:08;25.50;99.90
19483;DHT22;9882;51.166;6.992;2023-06-22T01:46:01;25.40;99.90
19483;DHT22;9882;51.166;6.992;2023-06-22T01:48:31;25.10;99.90
19483;DHT22;9882;51.166;6.992;2023-06-22T01:51:02;25.20;99.90
19483;DHT22;9882;51.166;6.992;2023-06-22T01:53:33;25.30;99.90
19483;DHT22;9882;51.166;6.992;2023-06-22T01:56:02;25.30;99.90
19483;DHT22;9882;51.166;6.992;2023-06-22T01:58:32;25.40;99.90
19483;DHT22;9882;51.166;6.992;2023-06-22T02:01:10;25.40;99.90
19483;DHT22;9882;51.166;6.992;2023-06-22T02:03:43;25.30;99.90
19483;DHT22;9882;51.166;6.992;2023-06-22T02:06:16;25.20;99.90
19483;DHT22;9882;51.166;6.992;2023-06-22T02:08:49;25.40;99.90
19483;DHT22;9882;51.166;6.992;2023-06-22T02:11:21;25.40;99.90
19483;DHT22;9882;51.166;6.992;2023-06-22T02:13:51;25.40;99.90
19483;DHT22;9882;51.166;6.992;2023-06-22T02:16:22;25.30;99.90
19483;DHT22;9882;51.166;6.992;2023-06-22T02:18:52;25.30;99.90
19483;DHT22;9882;51.166;6.992;2023-06-22T02:21:21;25.30;99.90
19483;DHT22;9882;51.166;6.992;2023-06-22T02:23:56;25.30;99.90
19483;DHT22;9882;51.166;6.992;2023-06-22T02:26:26;25.40;99.90
19483;DHT22;9882;51.166;6.992;2023-06-22T02:28:55;25.20;99.90
19483;DHT22;9882;51.166;6.992;2023-06-22T02:31:25;25.30;99.90
19483;DHT22;9882;51.166;6.992;2023-06-22T02:33:58;25.20;99.90
19483;DHT22;9882;51.166;6.992;2023-06-22T02:36:27;25.10;99.90
19483;DHT22;9882;51.166;6.992;2023-06-22T02:39:00;25.10;99.90
19483;DHT22;9882;51.166;6.992;2023-06-22T02:41:31;25.10;99.90
19483;DHT22;9882;51.166;6.992;2023-06-22T02:44:00;25.00;99.90
19483;DHT22;9882;51.166;6.992;2023-06-22T02:46:30;24.90;99.90
19483;DHT22;9882;51.166;6.992;2023-06-22T02:49:00;24.90;99.90
19483;DHT22;9882;51.166;6.992;2023-06-22T02:51:32;24.80;99.90
19483;DHT22;9882;51.166;6.992;2023-06-22T02:54:03;24.90;99.90
19483;DHT22;9882;51.166;6.992;2023-06-22T02:56:32;24.90;99.90
19483;DHT22;9882;51.166;6.992;2023-06-22T02:59:01;24.70;99.90
19483;DHT22;9882;51.166;6.992;2023-06-22T03:01:38;24.70;99.90
19483;DHT22;9882;51.166;6.992;2023-06-22T03:04:18;24.80;99.90
19483;DHT22;9882;51.166;6.992;2023-06-22T03:06:47;24.90;99.90
19483;DHT22;9882;51.166;6.992;2023-06-22T03:09:18;24.90;99.90
19483;DHT22;9882;51.166;6.992;2023-06-22T03:11:48;24.80;99.90
19483;DHT22;9882;51.166;6.992;2023-06-22T03:14:18;24.80;99.90
19483;DHT22;9882;51.166;6.992;2023-06-22T03:16:48;24.90;99.90
19483;DHT22;9882;51.166;6.992;2023-06-22T03:19:19;24.70;99.90
19483;DHT22;9882;51.166;6.992;2023-06-22T03:21:49;24.90;99.90
19483;DHT22;9882;51.166;6.992;2023-06-22T03:24:18;24.90;99.90
19483;DHT22;9882;51.166;6.992;2023-06-22T03:26:48;24.90;99.90
19483;DHT22;9882;51.166;6.992;2023-06-22T03:29:17;24.90;99.90
19483;DHT22;9882;51.166;6.992;2023-06-22T03:31:48;24.90;99.90
19483;DHT22;9882;51.166;6.992;2023-06-22T03:34:17;24.90;99.90
19483;DHT22;9882;51.166;6.992;2023-06-22T03:36:48;24.90;99.90
19483;DHT22;9882;51.166;6.992;2023-06-22T03:39:18;24.80;99.90
19483;DHT22;9882;51.166;6.992;2023-06-22T03:41:48;24.90;99.90
19483;DHT22;9882;51.166;6.992;2023-06-22T03:44:18;24.90;99.90
19483;DHT22;9882;51.166;6.992;2023-06-22T03:46:48;24.90;99.90
19483;DHT22;9882;51.166;6.992;2023-06-22T03:49:19;24.80;99.90
19483;DHT22;9882;51.166;6.992;2023-06-22T03:51:48;24.70;99.90
19483;DHT22;9882;51.166;6.992;2023-06-22T03:54:17;24.50;99.90
19483;DHT22;9882;51.166;6.992;2023-06-22T03:56:46;24.40;99.90
19483;DHT22;9882;51.166;6.992;2023-06-22T03:59:16;24.50;99.90
19483;DHT22;9882;51.166;6.992;2023-06-22T04:01:45;24.20;99.90
19483;DHT22;9882;51.166;6.992;2023-06-22T04:04:16;24.10;99.90
19483;DHT22;9882;51.166;6.992;2023-06-22T04:06:45;24.00;99.90
19483;DHT22;9882;51.166;6.992;2023-06-22T04:09:14;24.00;99.90
19483;DHT22;9882;51.166;6.992;2023-06-22T04:11:44;24.10;99.90
19483;DHT22;9882;51.166;6.992;2023-06-22T04:14:13;24.20;99.90
19483;DHT22;9882;51.166;6.992;2023-06-22T04:16:42;24.20;99.90
19483;DHT22;9882;51.166;6.992;2023-06-22T04:19:11;24.20;99.90
19483;DHT22;9882;51.166;6.992;2023-06-22T04:21:45;24.30;99.90
19483;DHT22;9882;51.166;6.992;2023-06-22T04:24:16;24.30;99.90
19483;DHT22;9882;51.166;6.992;2023-06-22T04:26:46;24.30;99.90
19483;DHT22;9882;51.166;6.992;2023-06-22T04:29:15;24.20;99.90
19483;DHT22;9882;51.166;6.992;2023-06-22T04:31:44;24.30;99.90
19483;DHT22;9882;51.166;6.992;2023-06-22T04:34:18;24.30;99.90
19483;DHT22;9882;51.166;6.992;2023-06-22T04:36:49;24.20;99.90
19483;DHT22;9882;51.166;6.992;2023-06-22T04:39:18;23.80;99.90
19483;DHT22;9882;51.166;6.992;2023-06-22T04:41:47;24.00;99.90
19483;DHT22;9882;51.166;6.992;2023-06-22T04:44:18;23.70;99.90
19483;DHT22;9882;51.166;6.992;2023-06-22T04:46:53;24.00;99.90
19483;DHT22;9882;51.166;6.992;2023-06-22T04:49:27;24.00;99.90
19483;DHT22;9882;51.166;6.992;2023-06-22T04:52:03;24.00;99.90
19483;DHT22;9882;51.166;6.992;2023-06-22T04:54:33;24.00;99.90
19483;DHT22;9882;51.166;6.992;2023-06-22T04:57:03;24.10;99.90
19483;DHT22;9882;51.166;6.992;2023-06-22T04:59:38;24.20;99.90
19483;DHT22;9882;51.166;6.992;2023-06-22T05:02:09;24.30;99.90
19483;DHT22;9882;51.166;6.992;2023-06-22T05:04:41;24.30;99.90
19483;DHT22;9882;51.166;6.992;2023-06-22T05:07:22;24.30;99.90
19483;DHT22;9882;51.166;6.992;2023-06-22T05:09:53;24.30;99.90
19483;DHT22;9882;51.166;6.992;2023-06-22T05:12:22;24.30;99.90
19483;DHT22;9882;51.166;6.992;2023-06-22T05:14:54;24.30;99.90
19483;DHT22;9882;51.166;6.992;2023-06-22T05:20:10;24.30;99.90
19483;DHT22;9882;51.166;6.992;2023-06-22T05:22:40;24.30;99.90
19483;DHT22;9882;51.166;6.992;2023-06-22T05:25:11;24.00;99.90
19483;DHT22;9882;51.166;6.992;2023-06-22T05:27:40;24.10;99.90
19483;DHT22;9882;51.166;6.992;2023-06-22T05:30:09;24.10;99.90
19483;DHT22;9882;51.166;6.992;2023-06-22T05:35:14;24.10;99.90
19483;DHT22;9882;51.166;6.992;2023-06-22T05:37:44;24.10;99.90
19483;DHT22;9882;51.166;6.992;2023-06-22T05:40:13;24.10;99.90
19483;DHT22;9882;51.166;6.992;2023-06-22T05:42:41;23.90;99.90
19483;DHT22;9882;51.166;6.992;2023-06-22T05:45:10;24.00;99.90
19483;DHT22;9882;51.166;6.992;2023-06-22T05:47:38;24.10;99.90
19483;DHT22;9882;51.166;6.992;2023-06-22T05:50:08;24.00;99.90
19483;DHT22;9882;51.166;6.992;2023-06-22T05:52:37;24.00;99.90
19483;DHT22;9882;51.166;6.992;2023-06-22T05:55:08;24.10;99.90
19483;DHT22;9882;51.166;6.992;2023-06-22T05:57:37;24.10;99.90
19483;DHT22;9882;51.166;6.992;2023-06-22T06:00:06;23.90;99.90
19483;DHT22;9882;51.166;6.992;2023-06-22T06:02:38;24.00;99.90
19483;DHT22;9882;51.166;6.992;2023-06-22T06:05:11;24.10;99.90
19483;DHT22;9882;51.166;6.992;2023-06-22T06:07:41;24.10;99.90
19483;DHT22;9882;51.166;6.992;2023-06-22T06:10:10;24.10;99.90
19483;DHT22;9882;51.166;6.992;2023-06-22T06:12:39;24.20;99.90
19483;DHT22;9882;51.166;6.992;2023-06-22T06:15:08;24.20;99.90
19483;DHT22;9882;51.166;6.992;2023-06-22T06:17:45;24.20;99.90
19483;DHT22;9882;51.166;6.992;2023-06-22T06:20:14;24.30;99.90
19483;DHT22;9882;51.166;6.992;2023-06-22T06:22:43;24.30;99.90
19483;DHT22;9882;51.166;6.992;2023-06-22T06:25:13;24.30;99.90
19483;DHT22;9882;51.166;6.992;2023-06-22T06:27:44;24.30;99.90
19483;DHT22;9882;51.166;6.992;2023-06-22T06:30:14;24.30;99.90
19483;DHT22;9882;51.166;6.992;2023-06-22T06:32:43;24.30;99.90
19483;DHT22;9882;51.166;6.992;2023-06-22T06:35:14;24.20;99.90
19483;DHT22;9882;51.166;6.992;2023-06-22T06:37:44;24.20;99.90
19483;DHT22;9882;51.166;6.992;2023-06-22T06:40:15;24.30;99.90
19483;DHT22;9882;51.166;6.992;2023-06-22T06:42:45;23.80;99.90
19483;DHT22;9882;51.166;6.992;2023-06-22T06:45:16;23.20;99.90
19483;DHT22;9882;51.166;6.992;2023-06-22T06:47:45;22.10;99.90
19483;DHT22;9882;51.166;6.992;2023-06-22T06:50:14;22.10;99.90
19483;DHT22;9882;51.166;6.992;2023-06-22T06:52:43;22.90;99.90
19483;DHT22;9882;51.166;6.992;2023-06-22T06:55:11;22.90;99.90
19483;DHT22;9882;51.166;6.992;2023-06-22T06:57:42;23.40;99.90
19483;DHT22;9882;51.166;6.992;2023-06-22T07:00:12;23.70;99.90
19483;DHT22;9882;51.166;6.992;2023-06-22T07:02:43;23.80;99.90
19483;DHT22;9882;51.166;6.992;2023-06-22T07:05:12;23.90;99.90
19483;DHT22;9882;51.166;6.992;2023-06-22T07:07:41;23.90;99.90
19483;DHT22;9882;51.166;6.992;2023-06-22T07:10:10;24.00;99.90
19483;DHT22;9882;51.166;6.992;2023-06-22T07:12:39;23.70;99.90
19483;DHT22;9882;51.166;6.992;2023-06-22T07:15:10;23.60;99.90
19483;DHT22;9882;51.166;6.992;2023-06-22T07:17:39;23.80;99.90
19483;DHT22;9882;51.166;6.992;2023-06-22T07:20:09;23.60;99.90
19483;DHT22;9882;51.166;6.992;2023-06-22T07:22:39;23.70;99.90
19483;DHT22;9882;51.166;6.992;2023-06-22T07:25:08;23.80;99.90
19483;DHT22;9882;51.166;6.992;2023-06-22T07:27:38;23.80;99.90
19483;DHT22;9882;51.166;6.992;2023-06-22T07:30:12;23.90;99.90
19483;DHT22;9882;51.166;6.992;2023-06-22T07:32:40;23.90;99.90
19483;DHT22;9882;51.166;6.992;2023-06-22T07:35:09;23.90;99.90
19483;DHT22;9882;51.166;6.992;2023-06-22T07:37:38;23.90;99.90
19483;DHT22;9882;51.166;6.992;2023-06-22T07:40:07;23.80;99.90
19483;DHT22;9882;51.166;6.992;2023-06-22T07:42:36;23.60;99.90
19483;DHT22;9882;51.166;6.992;2023-06-22T07:45:06;23.60;99.90
19483;DHT22;9882;51.166;6.992;2023-06-22T07:47:36;23.70;99.90
19483;DHT22;9882;51.166;6.992;2023-06-22T07:50:05;23.30;99.90
19483;DHT22;9882;51.166;6.992;2023-06-22T07:52:34;23.30;99.90
19483;DHT22;9882;51.166;6.992;2023-06-22T07:55:03;23.30;99.90
19483;DHT22;9882;51.166;6.992;2023-06-22T07:57:32;23.40;99.90
19483;DHT22;9882;51.166;6.992;2023-06-22T08:00:02;23.40;99.90
19483;DHT22;9882;51.166;6.992;2023-06-22T08:02:40;23.50;99.90
19483;DHT22;9882;51.166;6.992;2023-06-22T08:05:09;23.40;99.90
19483;DHT22;9882;51.166;6.992;2023-06-22T08:07:41;23.50;99.90
19483;DHT22;9882;51.166;6.992;2023-06-22T08:10:12;23.60;99.90
19483;DHT22;9882;51.166;6.992;2023-06-22T08:12:41;23.50;99.90
19483;DHT22;9882;51.166;6.992;2023-06-22T08:15:09;23.60;99.90
19483;DHT22;9882;51.166;6.992;2023-06-22T08:17:39;23.80;99.90
19483;DHT22;9882;51.166;6.992;2023-06-22T08:20:09;23.80;99.90
19483;DHT22;9882;51.166;6.992;2023-06-22T08:22:39;23.90;99.90
19483;DHT22;9882;51.166;6.992;2023-06-22T08:25:08;23.90;99.90
19483;DHT22;9882;51.166;6.992;2023-06-22T08:27:37;23.90;99.90
19483;DHT22;9882;51.166;6.992;2023-06-22T08:30:07;23.90;99.90
19483;DHT22;9882;51.166;6.992;2023-06-22T08:32:35;23.90;99.90
19483;DHT22;9882;51.166;6.992;2023-06-22T08:35:06;23.90;99.90
19483;DHT22;9882;51.166;6.992;2023-06-22T08:37:35;24.10;99.90
19483;DHT22;9882;51.166;6.992;2023-06-22T08:40:07;24.00;99.90
19483;DHT22;9882;51.166;6.992;2023-06-22T08:42:37;24.10;99.90
19483;DHT22;9882;51.166;6.992;2023-06-22T08:45:07;24.10;99.90
19483;DHT22;9882;51.166;6.992;2023-06-22T08:47:36;24.10;99.90
19483;DHT22;9882;51.166;6.992;2023-06-22T08:50:07;24.30;99.90
19483;DHT22;9882;51.166;6.992;2023-06-22T08:52:36;24.40;99.90
19483;DHT22;9882;51.166;6.992;2023-06-22T08:55:05;24.40;99.90
19483;DHT22;9882;51.166;6.992;2023-06-22T08:57:34;24.30;99.90
19483;DHT22;9882;51.166;6.992;2023-06-22T09:00:06;24.50;99.90
19483;DHT22;9882;51.166;6.992;2023-06-22T09:02:43;24.50;99.90
19483;DHT22;9882;51.166;6.992;2023-06-22T09:05:13;24.60;99.90
19483;DHT22;9882;51.166;6.992;2023-06-22T09:07:42;24.60;99.90
19483;DHT22;9882;51.166;6.992;2023-06-22T09:10:10;24.80;99.90
19483;DHT22;9882;51.166;6.992;2023-06-22T09:12:39;24.80;99.90
19483;DHT22;9882;51.166;6.992;2023-06-22T09:15:09;24.90;99.90
19483;DHT22;9882;51.166;6.992;2023-06-22T09:17:40;24.90;99.90
19483;DHT22;9882;51.166;6.992;2023-06-22T09:20:10;24.90;99.90
19483;DHT22;9882;51.166;6.992;2023-06-22T09:22:40;25.00;99.90
19483;DHT22;9882;51.166;6.992;2023-06-22T09:25:09;25.20;99.90
19483;DHT22;9882;51.166;6.992;2023-06-22T09:27:38;25.20;99.90
19483;DHT22;9882;51.166;6.992;2023-06-22T09:30:07;25.40;99.90
19483;DHT22;9882;51.166;6.992;2023-06-22T09:32:36;25.30;99.90
19483;DHT22;9882;51.166;6.992;2023-06-22T09:35:05;25.70;99.90
19483;DHT22;9882;51.166;6.992;2023-06-22T09:37:35;25.70;99.90
19483;DHT22;9882;51.166;6.992;2023-06-22T09:40:07;25.60;99.90
19483;DHT22;9882;51.166;6.992;2023-06-22T09:42:38;25.50;99.90
19483;DHT22;9882;51.166;6.992;2023-06-22T09:45:08;25.60;99.90
19483;DHT22;9882;51.166;6.992;2023-06-22T09:47:36;25.50;99.90
19483;DHT22;9882;51.166;6.992;2023-06-22T09:50:06;25.50;99.90
19483;DHT22;9882;51.166;6.992;2023-06-22T09:52:34;25.60;99.90
19483;DHT22;9882;51.166;6.992;2023-06-22T09:55:08;25.70;99.90
19483;DHT22;9882;51.166;6.992;2023-06-22T09:57:36;25.70;99.90
19483;DHT22;9882;51.166;6.992;2023-06-22T10:00:06;25.80;99.90
19483;DHT22;9882;51.166;6.992;2023-06-22T10:02:37;25.90;99.90
19483;DHT22;9882;51.166;6.992;2023-06-22T10:05:06;26.00;99.90
19483;DHT22;9882;51.166;6.992;2023-06-22T10:07:35;26.10;99.90
19483;DHT22;9882;51.166;6.992;2023-06-22T10:10:09;26.20;99.90
19483;DHT22;9882;51.166;6.992;2023-06-22T10:12:41;26.30;99.90
19483;DHT22;9882;51.166;6.992;2023-06-22T10:15:10;26.40;99.90
19483;DHT22;9882;51.166;6.992;2023-06-22T10:17:42;26.40;99.90
19483;DHT22;9882;51.166;6.992;2023-06-22T10:20:11;26.30;99.90
19483;DHT22;9882;51.166;6.992;2023-06-22T10:22:40;26.30;99.90
19483;DHT22;9882;51.166;6.992;2023-06-22T10:25:12;26.20;99.90
19483;DHT22;9882;51.166;6.992;2023-06-22T10:27:40;26.20;99.90
19483;DHT22;9882;51.166;6.992;2023-06-22T10:30:11;26.20;99.90
19483;DHT22;9882;51.166;6.992;2023-06-22T10:32:41;26.20;99.90
19483;DHT22;9882;51.166;6.992;2023-06-22T10:35:10;26.00;99.90
19483;DHT22;9882;51.166;6.992;2023-06-22T10:37:41;25.90;99.90
19483;DHT22;9882;51.166;6.992;2023-06-22T10:40:12;25.90;99.90
19483;DHT22;9882;51.166;6.992;2023-06-22T10:42:42;25.90;99.90
19483;DHT22;9882;51.166;6.992;2023-06-22T10:45:11;25.90;99.90
19483;DHT22;9882;51.166;6.992;2023-06-22T10:47:40;25.90;99.90
19483;DHT22;9882;51.166;6.992;2023-06-22T10:50:10;25.90;99.90
19483;DHT22;9882;51.166;6.992;2023-06-22T10:52:39;25.90;99.90
19483;DHT22;9882;51.166;6.992;2023-06-22T10:55:09;25.80;99.90
19483;DHT22;9882;51.166;6.992;2023-06-22T10:57:39;25.80;99.90
19483;DHT22;9882;51.166;6.992;2023-06-22T11:00:11;25.20;99.90
19483;DHT22;9882;51.166;6.992;2023-06-22T11:02:40;25.40;99.90
19483;DHT22;9882;51.166;6.992;2023-06-22T11:05:09;25.60;99.90
19483;DHT22;9882;51.166;6.992;2023-06-22T11:07:37;25.30;99.90
19483;DHT22;9882;51.166;6.992;2023-06-22T11:10:12;25.20;99.90
19483;DHT22;9882;51.166;6.992;2023-06-22T11:12:42;24.80;99.90
19483;DHT22;9882;51.166;6.992;2023-06-22T11:15:10;25.10;99.90
19483;DHT22;9882;51.166;6.992;2023-06-22T11:17:39;25.20;99.90
19483;DHT22;9882;51.166;6.992;2023-06-22T11:20:08;25.00;99.90
19483;DHT22;9882;51.166;6.992;2023-06-22T11:22:38;25.30;99.90
19483;DHT22;9882;51.166;6.992;2023-06-22T11:25:07;25.50;99.90
19483;DHT22;9882;51.166;6.992;2023-06-22T11:27:36;25.50;99.90
19483;DHT22;9882;51.166;6.992;2023-06-22T11:30:07;25.50;99.90
19483;DHT22;9882;51.166;6.992;2023-06-22T11:32:36;25.50;99.90
19483;DHT22;9882;51.166;6.992;2023-06-22T11:35:05;25.60;99.90
19483;DHT22;9882;51.166;6.992;2023-06-22T11:37:33;25.70;99.90
19483;DHT22;9882;51.166;6.992;2023-06-22T11:40:02;25.70;99.90
19483;DHT22;9882;51.166;6.992;2023-06-22T11:42:34;25.70;99.90
19483;DHT22;9882;51.166;6.992;2023-06-22T11:45:06;25.30;99.90
19483;DHT22;9882;51.166;6.992;2023-06-22T11:47:35;25.30;99.90
19483;DHT22;9882;51.166;6.992;2023-06-22T11:50:05;25.10;99.90
19483;DHT22;9882;51.166;6.992;2023-06-22T11:52:34;25.00;99.90
19483;DHT22;9882;51.166;6.992;2023-06-22T11:55:05;24.90;99.90
19483;DHT22;9882;51.166;6.992;2023-06-22T11:57:34;25.10;99.90
19483;DHT22;9882;51.166;6.992;2023-06-22T12:00:06;25.00;99.90
19483;DHT22;9882;51.166;6.992;2023-06-22T12:02:42;25.10;99.90
19483;DHT22;9882;51.166;6.992;2023-06-22T12:05:10;24.90;99.90
19483;DHT22;9882;51.166;6.992;2023-06-22T12:07:39;24.80;99.90
19483;DHT22;9882;51.166;6.992;2023-06-22T12:10:08;24.70;99.90
19483;DHT22;9882;51.166;6.992;2023-06-22T12:12:37;24.70;99.90
19483;DHT22;9882;51.166;6.992;2023-06-22T12:15:08;24.70;99.90
19483;DHT22;9882;51.166;6.992;2023-06-22T12:17:37;24.70;99.90
19483;DHT22;9882;51.166;6.992;2023-06-22T12:20:07;24.80;99.90
19483;DHT22;9882;51.166;6.992;2023-06-22T12:22:35;24.60;99.90
19483;DHT22;9882;51.166;6.992;2023-06-22T12:25:06;24.50;99.90
19483;DHT22;9882;51.166;6.992;2023-06-22T12:27:35;24.50;99.90
19483;DHT22;9882;51.166;6.992;2023-06-22T12:30:05;24.30;99.90
19483;DHT22;9882;51.166;6.992;2023-06-22T12:32:35;24.80;99.90
19483;DHT22;9882;51.166;6.992;2023-06-22T12:35:04;25.10;99.90
19483;DHT22;9882;51.166;6.992;2023-06-22T12:37:34;25.20;99.90
19483;DHT22;9882;51.166;6.992;2023-06-22T12:40:03;24.90;99.90
19483;DHT22;9882;51.166;6.992;2023-06-22T12:42:32;25.00;99.90
19483;DHT22;9882;51.166;6.992;2023-06-22T12:45:00;25.20;99.90
19483;DHT22;9882;51.166;6.992;2023-06-22T12:47:29;25.40;99.90
19483;DHT22;9882;51.166;6.992;2023-06-22T12:49:59;25.40;99.90
19483;DHT22;9882;51.166;6.992;2023-06-22T12:52:29;25.40;99.90
19483;DHT22;9882;51.166;6.992;2023-06-22T12:54:58;25.40;99.90
19483;DHT22;9882;51.166;6.992;2023-06-22T12:57:26;25.20;99.90
19483;DHT22;9882;51.166;6.992;2023-06-22T12:59:55;25.20;99.90
19483;DHT22;9882;51.166;6.992;2023-06-22T13:02:25;25.30;99.90
19483;DHT22;9882;51.166;6.992;2023-06-22T13:04:54;25.40;99.90
19483;DHT22;9882;51.166;6.992;2023-06-22T13:07:24;25.40;99.90
19483;DHT22;9882;51.166;6.992;2023-06-22T13:09:52;25.50;99.90
19483;DHT22;9882;51.166;6.992;2023-06-22T13:12:21;25.50;99.90
19483;DHT22;9882;51.166;6.992;2023-06-22T13:14:50;25.60;99.90
19483;DHT22;9882;51.166;6.992;2023-06-22T13:17:20;25.50;99.90
19483;DHT22;9882;51.166;6.992;2023-06-22T13:19:49;25.40;99.90
19483;DHT22;9882;51.166;6.992;2023-06-22T13:22:29;25.20;99.90
19483;DHT22;9882;51.166;6.992;2023-06-22T13:24:58;25.40;99.90
19483;DHT22;9882;51.166;6.992;2023-06-22T13:27:27;25.30;99.90
19483;DHT22;9882;51.166;6.992;2023-06-22T13:29:55;25.50;99.90
19483;DHT22;9882;51.166;6.992;2023-06-22T13:32:24;25.60;99.90
19483;DHT22;9882;51.166;6.992;2023-06-22T13:34:54;25.90;99.90
19483;DHT22;9882;51.166;6.992;2023-06-22T13:37:22;25.90;99.90
19483;DHT22;9882;51.166;6.992;2023-06-22T13:39:52;25.90;99.90
19483;DHT22;9882;51.166;6.992;2023-06-22T13:42:24;26.00;99.90
19483;DHT22;9882;51.166;6.992;2023-06-22T13:44:52;26.00;99.90
19483;DHT22;9882;51.166;6.992;2023-06-22T13:47:21;25.80;99.90
19483;DHT22;9882;51.166;6.992;2023-06-22T13:49:49;25.80;99.90
19483;DHT22;9882;51.166;6.992;2023-06-22T13:52:18;25.70;99.90
19483;DHT22;9882;51.166;6.992;2023-06-22T13:54:46;25.80;99.90
19483;DHT22;9882;51.166;6.992;2023-06-22T13:57:16;25.80;99.90
19483;DHT22;9882;51.166;6.992;2023-06-22T13:59:45;26.10;99.90
19483;DHT22;9882;51.166;6.992;2023-06-22T14:02:13;26.30;99.90
19483;DHT22;9882;51.166;6.992;2023-06-22T14:04:42;26.20;99.90
19483;DHT22;9882;51.166;6.992;2023-06-22T14:07:10;26.20;99.90
19483;DHT22;9882;51.166;6.992;2023-06-22T14:09:42;26.20;99.90
19483;DHT22;9882;51.166;6.992;2023-06-22T14:12:11;26.10;99.90
19483;DHT22;9882;51.166;6.992;2023-06-22T14:14:41;26.10;99.90
19483;DHT22;9882;51.166;6.992;2023-06-22T14:17:10;26.00;99.90
19483;DHT22;9882;51.166;6.992;2023-06-22T14:19:39;25.80;99.90
19483;DHT22;9882;51.166;6.992;2023-06-22T14:22:07;25.50;99.90
19483;DHT22;9882;51.166;6.992;2023-06-22T14:24:36;25.30;99.90
19483;DHT22;9882;51.166;6.992;2023-06-22T14:27:09;25.20;99.90
19483;DHT22;9882;51.166;6.992;2023-06-22T14:29:38;25.30;99.90
19483;DHT22;9882;51.166;6.992;2023-06-22T14:32:08;25.40;99.90
19483;DHT22;9882;51.166;6.992;2023-06-22T14:34:37;25.30;99.90
19483;DHT22;9882;51.166;6.992;2023-06-22T14:37:07;25.10;99.90
19483;DHT22;9882;51.166;6.992;2023-06-22T14:39:37;25.20;99.90
19483;DHT22;9882;51.166;6.992;2023-06-22T14:42:05;25.40;99.90
19483;DHT22;9882;51.166;6.992;2023-06-22T14:44:34;25.40;99.90
19483;DHT22;9882;51.166;6.992;2023-06-22T14:47:03;25.60;99.90
19483;DHT22;9882;51.166;6.992;2023-06-22T14:49:33;25.70;99.90
19483;DHT22;9882;51.166;6.992;2023-06-22T14:52:03;25.80;99.90
19483;DHT22;9882;51.166;6.992;2023-06-22T14:54:33;25.50;99.90
19483;DHT22;9882;51.166;6.992;2023-06-22T14:57:02;25.30;99.90
19483;DHT22;9882;51.166;6.992;2023-06-22T14:59:31;25.10;99.90
19483;DHT22;9882;51.166;6.992;2023-06-22T15:01:59;25.30;99.90
19483;DHT22;9882;51.166;6.992;2023-06-22T15:04:28;25.40;99.90
19483;DHT22;9882;51.166;6.992;2023-06-22T15:07:03;25.10;99.90
19483;DHT22;9882;51.166;6.992;2023-06-22T15:09:32;25.10;99.90
19483;DHT22;9882;51.166;6.992;2023-06-22T15:12:01;25.20;99.90
19483;DHT22;9882;51.166;6.992;2023-06-22T15:14:32;24.90;99.90
19483;DHT22;9882;51.166;6.992;2023-06-22T15:17:01;25.20;99.90
19483;DHT22;9882;51.166;6.992;2023-06-22T15:19:29;25.20;99.90
19483;DHT22;9882;51.166;6.992;2023-06-22T15:21:58;25.10;99.90
19483;DHT22;9882;51.166;6.992;2023-06-22T15:24:28;25.00;99.90
19483;DHT22;9882;51.166;6.992;2023-06-22T15:26:56;24.90;99.90
19483;DHT22;9882;51.166;6.992;2023-06-22T15:29:25;25.00;99.90
19483;DHT22;9882;51.166;6.992;2023-06-22T15:31:54;24.90;99.90
19483;DHT22;9882;51.166;6.992;2023-06-22T15:34:22;24.50;99.90
19483;DHT22;9882;51.166;6.992;2023-06-22T15:36:51;24.70;99.90
19483;DHT22;9882;51.166;6.992;2023-06-22T15:39:19;24.30;99.90
19483;DHT22;9882;51.166;6.992;2023-06-22T15:41:51;24.20;99.90
19483;DHT22;9882;51.166;6.992;2023-06-22T15:44:21;23.60;99.90
19483;DHT22;9882;51.166;6.992;2023-06-22T15:46:50;23.90;99.90
19483;DHT22;9882;51.166;6.992;2023-06-22T15:49:18;23.60;99.90
19483;DHT22;9882;51.166;6.992;2023-06-22T15:51:47;23.70;99.90
19483;DHT22;9882;51.166;6.992;2023-06-22T15:54:15;23.70;99.90
19483;DHT22;9882;51.166;6.992;2023-06-22T15:56:44;23.60;99.90
19483;DHT22;9882;51.166;6.992;2023-06-22T15:59:14;23.60;99.90
19483;DHT22;9882;51.166;6.992;2023-06-22T16:01:42;24.20;99.90
19483;DHT22;9882;51.166;6.992;2023-06-22T16:04:11;23.70;99.90
19483;DHT22;9882;51.166;6.992;2023-06-22T16:06:39;23.60;99.90
19483;DHT22;9882;51.166;6.992;2023-06-22T16:09:08;23.30;99.90
19483;DHT22;9882;51.166;6.992;2023-06-22T16:11:36;23.60;99.90